EDT,Max TemperatureF,Mean TemperatureF,Min TemperatureF,Max Dew PointF,MeanDew PointF,Min DewpointF,Max Humidity, Mean Humidity, Min Humidity, Max Sea Level PressureIn, Mean Sea Level PressureIn, Min Sea Level PressureIn, Max VisibilityMiles, Mean VisibilityMiles, Min VisibilityMiles, Max Wind SpeedMPH, Mean Wind SpeedMPH, Max Gust SpeedMPH,PrecipitationIn, CloudCover, Events, WindDirDegrees
2013-3-1,42,37,32,34,28,24,93,71,51,29.77,29.67,29.59,10,10,10,12,5,17,0.00,7,Rain,319
2013-3-2,37,34,28,25,23,22,80,66,57,29.76,29.73,29.69,10,10,10,12,7,17,0.00,8,,319
2013-3-3,35,31,27,25,20,14,80,67,50,29.73,29.70,29.66,10,9,2,13,7,24,0.00,8,Snow,319
2013-3-4,41,34,27,21,18,16,69,57,45,29.88,29.78,29.73,10,10,10,16,9,23,0.00,6,,306
2013-3-5,46,37,28,27,23,20,75,58,40,30.03,29.98,29.89,10,10,10,10,6,17,0.00,3,,352
2013-3-6,39,37,35,32,29,26,82,72,63,30.01,29.96,29.92,10,10,5,22,11,36,0.01,8,Rain,57
2013-3-7,36,34,32,31,29,25,93,82,70,30.08,30.02,29.96,10,3,1,20,14,32,0.07,8,Snow,359
2013-3-8,37,32,30,30,28,22,96,86,54,30.20,30.03,29.99,10,2,0,12,9,17,0.18,7,Fog-Snow,337
2013-3-9,51,40,27,23,21,19,81,60,28,30.34,30.30,30.25,10,10,10,7,3,,0.00,0,,-1
2013-3-10,46,34,21,31,27,18,89,72,46,30.40,30.34,30.30,10,10,7,9,2,,0.00,2,,160
2013-3-11,52,44,35,44,37,30,93,81,59,30.33,30.22,30.11,10,8,2,13,4,18,0.00,6,,162
2013-3-12,54,48,41,52,47,35,94,87,79,30.09,29.84,29.68,10,6,1,17,9,25,1.20,7,Rain,170
2013-3-13,48,38,30,33,26,20,92,62,34,29.87,29.84,29.78,10,10,8,13,5,20,0.00,3,,297
2013-3-14,35,30,26,26,11,3,73,45,28,29.92,29.87,29.84,10,10,10,17,10,31,0.00,6,,293
2013-3-15,39,32,24,28,17,6,68,52,36,29.94,29.84,29.73,10,10,8,17,9,23,0.00,4,,267
2013-3-16,37,34,30,27,22,13,86,69,41,29.91,29.82,29.76,10,7,1,9,5,20,0.00,7,Snow,303
2013-3-17,37,31,25,25,13,6,88,52,29,30.32,30.10,29.92,10,10,10,14,5,21,0.00,1,,344
2013-3-18,33,27,21,27,16,4,93,64,32,30.43,30.26,30.08,10,5,0,14,7,25,0.22,4,Fog-Snow,83
2013-3-19,37,32,28,34,29,19,93,86,54,30.06,29.81,29.68,10,5,1,17,9,23,0.30,7,Rain-Snow,30
2013-3-20,39,33,27,22,17,12,72,53,33,29.85,29.82,29.79,10,10,10,17,8,26,0.00,4,,262
2013-3-21,37,33,30,25,16,10,80,54,34,29.84,29.73,29.63,10,9,2,12,4,,0.00,8,Snow,334
2013-3-22,37,31,25,20,16,10,63,52,41,29.84,29.76,29.70,10,10,10,14,7,24,0.00,3,,278
2013-3-23,43,38,32,20,18,15,59,47,32,29.91,29.83,29.78,10,10,10,18,11,31,0.00,3,,286
2013-3-24,44,35,26,25,20,15,70,53,40,29.94,29.83,29.73,10,10,10,13,5,20,0.00,1,,306
2013-3-25,44,38,33,26,23,22,73,55,43,29.72,29.59,29.46,10,10,10,15,8,22,0.00,5,,54
2013-3-26,48,39,28,26,24,22,75,55,39,29.86,29.73,29.59,10,10,10,14,5,23,0.00,6,Rain,311
2013-3-27,51,37,24,24,22,19,84,54,32,29.94,29.88,29.85,10,10,10,17,4,23,0.00,2,,305
2013-3-28,48,37,28,31,28,23,79,62,50,30.10,30.00,29.94,10,10,10,13,4,18,0.00,6,,318
2013-3-29,53,40,28,29,26,23,85,55,33,30.13,30.10,30.04,10,10,10,13,4,21,0.00,4,,299
2013-3-30,55,42,28,29,23,16,85,53,23,30.15,30.11,30.06,10,10,10,9,3,16,0.00,2,,300
2013-3-31,54,40,27,41,29,21,89,62,31,30.14,29.98,29.68,10,9,3,17,4,28,0.08,4,Rain,153